Terminal Aerodrome Forecast
Issued by NWS

Home | Current Version | Previous Version | Text Only | Print | Product List | Glossary Off
Versions: 1 2 3 4 5 6 7 8 9 10 11 12 13 14 15 16 17 18 19

000
FTUS43 KUNR 260257 AAA
TAFGCC
TAF AMD
KGCC 260257Z 2603/2624 34015G25KT P6SM SCT080
     FM260500 34015G25KT P6SM -SHRA BKN035
     FM261000 32012KT P6SM BKN040=

USA.gov is the U.S. government's official web portal to all federal, state and local government web resources and services.